sensor_id;sensor_type;location;lat;lon;timestamp;P1;durP1;ratioP1;P2;durP2;ratioP2
38266;SDS011;24063;51.794;19.578;2023-02-13T00:00:16;16.60;;;15.93;;
38266;SDS011;24063;51.794;19.578;2023-02-13T00:01:39;15.36;;;15.08;;
38266;SDS011;24063;51.794;19.578;2023-02-13T00:02:40;16.00;;;15.62;;
38266;SDS011;24063;51.794;19.578;2023-02-13T00:03:40;16.34;;;15.88;;
38266;SDS011;24063;51.794;19.578;2023-02-13T00:04:41;16.34;;;15.82;;
38266;SDS011;24063;51.794;19.578;2023-02-13T00:05:42;16.80;;;16.08;;
38266;SDS011;24063;51.794;19.578;2023-02-13T00:06:50;16.51;;;16.10;;
38266;SDS011;24063;51.794;19.578;2023-02-13T00:07:51;16.41;;;16.05;;
38266;SDS011;24063;51.794;19.578;2023-02-13T00:08:51;16.35;;;16.03;;
38266;SDS011;24063;51.794;19.578;2023-02-13T00:09:52;16.78;;;16.43;;
38266;SDS011;24063;51.794;19.578;2023-02-13T00:10:53;15.53;;;15.24;;
38266;SDS011;24063;51.794;19.578;2023-02-13T00:11:53;15.55;;;15.25;;
38266;SDS011;24063;51.794;19.578;2023-02-13T00:12:54;15.06;;;14.91;;
38266;SDS011;24063;51.794;19.578;2023-02-13T00:13:54;15.60;;;15.19;;
38266;SDS011;24063;51.794;19.578;2023-02-13T00:14:55;15.37;;;15.10;;
38266;SDS011;24063;51.794;19.578;2023-02-13T00:15:56;14.79;;;14.47;;
38266;SDS011;24063;51.794;19.578;2023-02-13T00:16:59;15.18;;;14.94;;
38266;SDS011;24063;51.794;19.578;2023-02-13T00:18:00;16.02;;;15.64;;
38266;SDS011;24063;51.794;19.578;2023-02-13T00:19:01;15.21;;;15.00;;
38266;SDS011;24063;51.794;19.578;2023-02-13T00:20:02;16.14;;;15.77;;
38266;SDS011;24063;51.794;19.578;2023-02-13T00:21:09;14.91;;;14.36;;
38266;SDS011;24063;51.794;19.578;2023-02-13T00:22:12;15.94;;;15.37;;
38266;SDS011;24063;51.794;19.578;2023-02-13T00:23:13;16.70;;;16.24;;
38266;SDS011;24063;51.794;19.578;2023-02-13T00:24:13;15.96;;;15.61;;
38266;SDS011;24063;51.794;19.578;2023-02-13T00:25:14;15.50;;;15.27;;
38266;SDS011;24063;51.794;19.578;2023-02-13T00:26:15;15.29;;;14.95;;
38266;SDS011;24063;51.794;19.578;2023-02-13T00:27:17;14.61;;;14.39;;
38266;SDS011;24063;51.794;19.578;2023-02-13T00:28:18;14.51;;;14.17;;
38266;SDS011;24063;51.794;19.578;2023-02-13T00:29:18;16.36;;;15.83;;
38266;SDS011;24063;51.794;19.578;2023-02-13T00:30:19;15.39;;;14.95;;
38266;SDS011;24063;51.794;19.578;2023-02-13T00:31:20;14.96;;;14.64;;
38266;SDS011;24063;51.794;19.578;2023-02-13T00:32:22;15.71;;;15.25;;
38266;SDS011;24063;51.794;19.578;2023-02-13T00:33:22;15.62;;;15.35;;
38266;SDS011;24063;51.794;19.578;2023-02-13T00:34:23;16.04;;;15.64;;
38266;SDS011;24063;51.794;19.578;2023-02-13T00:35:23;15.48;;;14.98;;
38266;SDS011;24063;51.794;19.578;2023-02-13T00:36:25;15.58;;;15.04;;
38266;SDS011;24063;51.794;19.578;2023-02-13T00:37:26;15.54;;;15.05;;
38266;SDS011;24063;51.794;19.578;2023-02-13T00:38:28;14.95;;;14.64;;
38266;SDS011;24063;51.794;19.578;2023-02-13T00:39:29;14.65;;;14.42;;
38266;SDS011;24063;51.794;19.578;2023-02-13T00:40:30;14.50;;;14.26;;
38266;SDS011;24063;51.794;19.578;2023-02-13T00:41:30;14.90;;;14.55;;
38266;SDS011;24063;51.794;19.578;2023-02-13T00:42:31;15.94;;;15.51;;
38266;SDS011;24063;51.794;19.578;2023-02-13T00:43:31;15.91;;;15.57;;
38266;SDS011;24063;51.794;19.578;2023-02-13T00:44:32;15.30;;;15.10;;
38266;SDS011;24063;51.794;19.578;2023-02-13T00:45:34;16.20;;;15.92;;
38266;SDS011;24063;51.794;19.578;2023-02-13T00:46:35;15.37;;;15.10;;
38266;SDS011;24063;51.794;19.578;2023-02-13T00:47:38;16.12;;;15.94;;
38266;SDS011;24063;51.794;19.578;2023-02-13T00:48:38;16.01;;;15.78;;
38266;SDS011;24063;51.794;19.578;2023-02-13T00:49:39;15.99;;;15.73;;
38266;SDS011;24063;51.794;19.578;2023-02-13T00:50:40;15.13;;;14.99;;
38266;SDS011;24063;51.794;19.578;2023-02-13T00:51:42;15.48;;;15.22;;
38266;SDS011;24063;51.794;19.578;2023-02-13T00:52:43;16.56;;;16.00;;
38266;SDS011;24063;51.794;19.578;2023-02-13T00:53:45;15.60;;;15.09;;
38266;SDS011;24063;51.794;19.578;2023-02-13T00:54:48;15.86;;;15.51;;
38266;SDS011;24063;51.794;19.578;2023-02-13T00:55:49;15.39;;;14.97;;
38266;SDS011;24063;51.794;19.578;2023-02-13T00:56:50;15.76;;;15.40;;
38266;SDS011;24063;51.794;19.578;2023-02-13T00:57:50;16.03;;;15.76;;
38266;SDS011;24063;51.794;19.578;2023-02-13T00:58:51;16.03;;;15.89;;
38266;SDS011;24063;51.794;19.578;2023-02-13T00:59:51;16.51;;;16.17;;
38266;SDS011;24063;51.794;19.578;2023-02-13T01:00:52;15.93;;;15.72;;
38266;SDS011;24063;51.794;19.578;2023-02-13T01:01:55;15.64;;;15.24;;
38266;SDS011;24063;51.794;19.578;2023-02-13T01:02:56;16.18;;;15.90;;
38266;SDS011;24063;51.794;19.578;2023-02-13T01:03:56;17.13;;;16.81;;
38266;SDS011;24063;51.794;19.578;2023-02-13T01:04:57;16.93;;;16.72;;
38266;SDS011;24063;51.794;19.578;2023-02-13T01:05:57;16.33;;;15.98;;
38266;SDS011;24063;51.794;19.578;2023-02-13T01:06:58;15.88;;;15.59;;
38266;SDS011;24063;51.794;19.578;2023-02-13T01:07:59;16.41;;;15.94;;
38266;SDS011;24063;51.794;19.578;2023-02-13T01:08:59;15.92;;;15.59;;
38266;SDS011;24063;51.794;19.578;2023-02-13T01:10:02;17.10;;;16.77;;
38266;SDS011;24063;51.794;19.578;2023-02-13T01:11:03;16.71;;;16.34;;
38266;SDS011;24063;51.794;19.578;2023-02-13T01:12:03;16.14;;;15.80;;
38266;SDS011;24063;51.794;19.578;2023-02-13T01:13:04;16.18;;;15.72;;
38266;SDS011;24063;51.794;19.578;2023-02-13T01:14:06;17.30;;;16.93;;
38266;SDS011;24063;51.794;19.578;2023-02-13T01:15:06;16.58;;;16.25;;
38266;SDS011;24063;51.794;19.578;2023-02-13T01:16:07;16.24;;;15.92;;
38266;SDS011;24063;51.794;19.578;2023-02-13T01:17:08;15.86;;;15.63;;
38266;SDS011;24063;51.794;19.578;2023-02-13T01:18:11;15.60;;;15.33;;
38266;SDS011;24063;51.794;19.578;2023-02-13T01:19:14;15.99;;;15.74;;
38266;SDS011;24063;51.794;19.578;2023-02-13T01:20:14;15.24;;;15.09;;
38266;SDS011;24063;51.794;19.578;2023-02-13T01:21:17;15.69;;;15.49;;
38266;SDS011;24063;51.794;19.578;2023-02-13T01:22:20;15.14;;;14.87;;
38266;SDS011;24063;51.794;19.578;2023-02-13T01:23:22;14.91;;;14.67;;
38266;SDS011;24063;51.794;19.578;2023-02-13T01:24:24;16.12;;;15.75;;
38266;SDS011;24063;51.794;19.578;2023-02-13T01:25:29;16.61;;;16.07;;
38266;SDS011;24063;51.794;19.578;2023-02-13T01:26:30;16.69;;;15.99;;
38266;SDS011;24063;51.794;19.578;2023-02-13T01:27:31;16.49;;;15.87;;
38266;SDS011;24063;51.794;19.578;2023-02-13T01:28:32;17.02;;;16.52;;
38266;SDS011;24063;51.794;19.578;2023-02-13T01:29:34;16.51;;;16.09;;
38266;SDS011;24063;51.794;19.578;2023-02-13T01:30:35;16.55;;;16.02;;
38266;SDS011;24063;51.794;19.578;2023-02-13T01:31:36;16.90;;;16.35;;
38266;SDS011;24063;51.794;19.578;2023-02-13T01:32:36;17.38;;;16.89;;
38266;SDS011;24063;51.794;19.578;2023-02-13T01:33:38;16.04;;;15.68;;
38266;SDS011;24063;51.794;19.578;2023-02-13T01:34:39;16.10;;;15.67;;
38266;SDS011;24063;51.794;19.578;2023-02-13T01:35:40;17.91;;;17.24;;
38266;SDS011;24063;51.794;19.578;2023-02-13T01:36:42;16.87;;;16.37;;
38266;SDS011;24063;51.794;19.578;2023-02-13T01:37:43;17.12;;;16.70;;
38266;SDS011;24063;51.794;19.578;2023-02-13T01:38:43;16.86;;;16.53;;
38266;SDS011;24063;51.794;19.578;2023-02-13T01:39:44;16.15;;;15.93;;
38266;SDS011;24063;51.794;19.578;2023-02-13T01:40:46;15.57;;;15.39;;
38266;SDS011;24063;51.794;19.578;2023-02-13T01:41:48;15.83;;;15.65;;
38266;SDS011;24063;51.794;19.578;2023-02-13T01:42:49;15.55;;;15.35;;
38266;SDS011;24063;51.794;19.578;2023-02-13T01:43:57;15.87;;;15.74;;
38266;SDS011;24063;51.794;19.578;2023-02-13T01:45:00;16.99;;;16.71;;
38266;SDS011;24063;51.794;19.578;2023-02-13T01:46:05;17.07;;;16.72;;
38266;SDS011;24063;51.794;19.578;2023-02-13T01:47:06;16.27;;;15.90;;
38266;SDS011;24063;51.794;19.578;2023-02-13T01:48:16;15.37;;;15.03;;
38266;SDS011;24063;51.794;19.578;2023-02-13T01:49:22;15.97;;;15.71;;
38266;SDS011;24063;51.794;19.578;2023-02-13T01:50:29;17.02;;;16.71;;
38266;SDS011;24063;51.794;19.578;2023-02-13T01:51:48;16.97;;;16.60;;
38266;SDS011;24063;51.794;19.578;2023-02-13T01:53:00;17.45;;;16.85;;
38266;SDS011;24063;51.794;19.578;2023-02-13T01:54:09;17.35;;;16.81;;
38266;SDS011;24063;51.794;19.578;2023-02-13T01:55:16;16.02;;;15.70;;
38266;SDS011;24063;51.794;19.578;2023-02-13T01:56:21;17.39;;;16.95;;
38266;SDS011;24063;51.794;19.578;2023-02-13T01:57:48;17.04;;;16.81;;
38266;SDS011;24063;51.794;19.578;2023-02-13T01:58:56;17.46;;;17.06;;
38266;SDS011;24063;51.794;19.578;2023-02-13T02:00:03;17.65;;;17.17;;
38266;SDS011;24063;51.794;19.578;2023-02-13T02:01:17;17.61;;;17.15;;
38266;SDS011;24063;51.794;19.578;2023-02-13T02:02:21;16.52;;;16.14;;
38266;SDS011;24063;51.794;19.578;2023-02-13T02:03:25;17.02;;;16.74;;
38266;SDS011;24063;51.794;19.578;2023-02-13T02:04:32;17.50;;;16.98;;
38266;SDS011;24063;51.794;19.578;2023-02-13T02:05:42;16.10;;;15.79;;
38266;SDS011;24063;51.794;19.578;2023-02-13T02:06:47;16.40;;;16.11;;
38266;SDS011;24063;51.794;19.578;2023-02-13T02:08:06;16.79;;;16.47;;
38266;SDS011;24063;51.794;19.578;2023-02-13T02:09:13;16.66;;;16.42;;
38266;SDS011;24063;51.794;19.578;2023-02-13T02:10:19;17.05;;;16.86;;
38266;SDS011;24063;51.794;19.578;2023-02-13T02:14:07;17.44;;;17.11;;
38266;SDS011;24063;51.794;19.578;2023-02-13T02:15:08;17.28;;;17.02;;
38266;SDS011;24063;51.794;19.578;2023-02-13T02:16:10;15.94;;;15.72;;
38266;SDS011;24063;51.794;19.578;2023-02-13T02:17:11;16.54;;;16.33;;
38266;SDS011;24063;51.794;19.578;2023-02-13T02:18:22;16.94;;;16.48;;
38266;SDS011;24063;51.794;19.578;2023-02-13T02:22:15;16.39;;;16.08;;
38266;SDS011;24063;51.794;19.578;2023-02-13T02:27:39;17.40;;;17.04;;
38266;SDS011;24063;51.794;19.578;2023-02-13T02:35:01;17.69;;;17.25;;
38266;SDS011;24063;51.794;19.578;2023-02-13T02:37:24;18.68;;;18.24;;
38266;SDS011;24063;51.794;19.578;2023-02-13T02:40:14;18.25;;;17.67;;
38266;SDS011;24063;51.794;19.578;2023-02-13T02:41:49;17.51;;;17.14;;
38266;SDS011;24063;51.794;19.578;2023-02-13T02:43:16;18.77;;;18.25;;
38266;SDS011;24063;51.794;19.578;2023-02-13T02:47:23;17.83;;;17.42;;
38266;SDS011;24063;51.794;19.578;2023-02-13T02:48:50;17.50;;;17.20;;
38266;SDS011;24063;51.794;19.578;2023-02-13T02:50:25;18.55;;;18.24;;
38266;SDS011;24063;51.794;19.578;2023-02-13T02:51:48;18.26;;;18.12;;
38266;SDS011;24063;51.794;19.578;2023-02-13T02:54:28;19.35;;;18.85;;
38266;SDS011;24063;51.794;19.578;2023-02-13T02:57:18;18.81;;;18.26;;
38266;SDS011;24063;51.794;19.578;2023-02-13T03:00:21;19.10;;;18.68;;
38266;SDS011;24063;51.794;19.578;2023-02-13T03:01:44;19.34;;;19.06;;
38266;SDS011;24063;51.794;19.578;2023-02-13T03:03:05;19.51;;;18.95;;
38266;SDS011;24063;51.794;19.578;2023-02-13T03:04:43;19.45;;;18.83;;
38266;SDS011;24063;51.794;19.578;2023-02-13T03:06:09;19.83;;;19.47;;
38266;SDS011;24063;51.794;19.578;2023-02-13T03:07:23;19.54;;;19.25;;
38266;SDS011;24063;51.794;19.578;2023-02-13T03:08:24;18.46;;;18.17;;
38266;SDS011;24063;51.794;19.578;2023-02-13T03:09:48;19.37;;;18.95;;
38266;SDS011;24063;51.794;19.578;2023-02-13T03:11:12;20.05;;;19.61;;
38266;SDS011;24063;51.794;19.578;2023-02-13T03:12:35;20.06;;;19.67;;
38266;SDS011;24063;51.794;19.578;2023-02-13T03:13:59;18.68;;;18.27;;
38266;SDS011;24063;51.794;19.578;2023-02-13T03:15:05;19.39;;;19.14;;
38266;SDS011;24063;51.794;19.578;2023-02-13T03:16:09;19.55;;;19.16;;
38266;SDS011;24063;51.794;19.578;2023-02-13T03:17:35;19.45;;;18.97;;
38266;SDS011;24063;51.794;19.578;2023-02-13T03:18:56;20.02;;;19.70;;
38266;SDS011;24063;51.794;19.578;2023-02-13T03:22:12;19.07;;;18.82;;
38266;SDS011;24063;51.794;19.578;2023-02-13T03:24:58;19.35;;;18.93;;
38266;SDS011;24063;51.794;19.578;2023-02-13T03:26:36;19.20;;;18.75;;
38266;SDS011;24063;51.794;19.578;2023-02-13T03:30:02;19.66;;;19.20;;
38266;SDS011;24063;51.794;19.578;2023-02-13T03:31:33;21.54;;;20.95;;
38266;SDS011;24063;51.794;19.578;2023-02-13T03:32:59;20.54;;;19.95;;
38266;SDS011;24063;51.794;19.578;2023-02-13T03:34:25;19.73;;;19.48;;
38266;SDS011;24063;51.794;19.578;2023-02-13T03:36:08;20.32;;;19.87;;
38266;SDS011;24063;51.794;19.578;2023-02-13T03:37:40;20.71;;;20.43;;
38266;SDS011;24063;51.794;19.578;2023-02-13T03:40:14;20.65;;;20.00;;
38266;SDS011;24063;51.794;19.578;2023-02-13T03:41:20;20.82;;;20.24;;
38266;SDS011;24063;51.794;19.578;2023-02-13T03:42:31;20.93;;;20.20;;
38266;SDS011;24063;51.794;19.578;2023-02-13T03:43:51;20.02;;;19.71;;
38266;SDS011;24063;51.794;19.578;2023-02-13T03:45:46;20.80;;;20.40;;
38266;SDS011;24063;51.794;19.578;2023-02-13T03:46:53;20.82;;;20.46;;
38266;SDS011;24063;51.794;19.578;2023-02-13T03:47:59;20.96;;;20.39;;
38266;SDS011;24063;51.794;19.578;2023-02-13T03:49:10;20.93;;;20.38;;
38266;SDS011;24063;51.794;19.578;2023-02-13T03:50:39;19.94;;;19.74;;
38266;SDS011;24063;51.794;19.578;2023-02-13T03:51:46;20.53;;;20.13;;
38266;SDS011;24063;51.794;19.578;2023-02-13T03:53:04;20.27;;;19.72;;
38266;SDS011;24063;51.794;19.578;2023-02-13T03:54:18;20.64;;;20.28;;
38266;SDS011;24063;51.794;19.578;2023-02-13T03:56:00;20.55;;;20.14;;
38266;SDS011;24063;51.794;19.578;2023-02-13T03:57:21;20.88;;;20.34;;
38266;SDS011;24063;51.794;19.578;2023-02-13T03:58:45;21.04;;;20.52;;
38266;SDS011;24063;51.794;19.578;2023-02-13T04:00:12;20.77;;;20.10;;
38266;SDS011;24063;51.794;19.578;2023-02-13T04:01:17;20.51;;;20.18;;
38266;SDS011;24063;51.794;19.578;2023-02-13T04:02:23;19.99;;;19.69;;
38266;SDS011;24063;51.794;19.578;2023-02-13T04:04:58;20.69;;;20.29;;
38266;SDS011;24063;51.794;19.578;2023-02-13T04:07:25;21.32;;;20.80;;
38266;SDS011;24063;51.794;19.578;2023-02-13T04:08:29;21.44;;;20.64;;
38266;SDS011;24063;51.794;19.578;2023-02-13T04:09:30;21.22;;;20.60;;
38266;SDS011;24063;51.794;19.578;2023-02-13T04:10:40;21.49;;;20.90;;
38266;SDS011;24063;51.794;19.578;2023-02-13T04:12:14;21.29;;;20.86;;
38266;SDS011;24063;51.794;19.578;2023-02-13T04:13:31;20.56;;;19.91;;
38266;SDS011;24063;51.794;19.578;2023-02-13T04:15:47;21.11;;;20.61;;
38266;SDS011;24063;51.794;19.578;2023-02-13T04:16:56;21.00;;;20.66;;
38266;SDS011;24063;51.794;19.578;2023-02-13T04:18:24;20.81;;;20.55;;
38266;SDS011;24063;51.794;19.578;2023-02-13T04:19:30;21.27;;;20.85;;
38266;SDS011;24063;51.794;19.578;2023-02-13T04:20:32;21.68;;;21.05;;
38266;SDS011;24063;51.794;19.578;2023-02-13T04:21:36;20.85;;;20.08;;
38266;SDS011;24063;51.794;19.578;2023-02-13T04:22:45;22.72;;;21.84;;
38266;SDS011;24063;51.794;19.578;2023-02-13T04:23:47;23.02;;;22.16;;
38266;SDS011;24063;51.794;19.578;2023-02-13T04:24:47;23.69;;;22.78;;
38266;SDS011;24063;51.794;19.578;2023-02-13T04:25:49;21.65;;;20.83;;
38266;SDS011;24063;51.794;19.578;2023-02-13T04:26:53;21.10;;;20.62;;
38266;SDS011;24063;51.794;19.578;2023-02-13T04:27:55;20.58;;;20.05;;
38266;SDS011;24063;51.794;19.578;2023-02-13T04:28:56;22.55;;;21.68;;
38266;SDS011;24063;51.794;19.578;2023-02-13T04:29:56;22.75;;;21.48;;
38266;SDS011;24063;51.794;19.578;2023-02-13T04:30:56;23.48;;;21.89;;
38266;SDS011;24063;51.794;19.578;2023-02-13T04:31:58;25.12;;;23.37;;
38266;SDS011;24063;51.794;19.578;2023-02-13T04:32:58;24.69;;;23.14;;
38266;SDS011;24063;51.794;19.578;2023-02-13T04:33:59;25.32;;;23.48;;
38266;SDS011;24063;51.794;19.578;2023-02-13T04:35:00;23.99;;;22.15;;
38266;SDS011;24063;51.794;19.578;2023-02-13T04:36:00;24.36;;;22.66;;
38266;SDS011;24063;51.794;19.578;2023-02-13T04:37:01;24.38;;;22.38;;
38266;SDS011;24063;51.794;19.578;2023-02-13T04:38:01;23.97;;;22.33;;
38266;SDS011;24063;51.794;19.578;2023-02-13T04:39:02;23.41;;;21.95;;
38266;SDS011;24063;51.794;19.578;2023-02-13T04:40:03;24.97;;;23.14;;
38266;SDS011;24063;51.794;19.578;2023-02-13T04:41:04;27.05;;;24.74;;
38266;SDS011;24063;51.794;19.578;2023-02-13T04:42:05;28.26;;;25.73;;
38266;SDS011;24063;51.794;19.578;2023-02-13T04:43:05;27.12;;;25.17;;
38266;SDS011;24063;51.794;19.578;2023-02-13T04:44:06;26.85;;;24.76;;
38266;SDS011;24063;51.794;19.578;2023-02-13T04:45:07;22.97;;;21.07;;
38266;SDS011;24063;51.794;19.578;2023-02-13T04:46:08;22.42;;;20.88;;
38266;SDS011;24063;51.794;19.578;2023-02-13T04:47:09;23.99;;;21.58;;
38266;SDS011;24063;51.794;19.578;2023-02-13T04:48:10;22.32;;;20.27;;
38266;SDS011;24063;51.794;19.578;2023-02-13T04:49:11;26.49;;;25.04;;
38266;SDS011;24063;51.794;19.578;2023-02-13T04:50:11;34.24;;;33.34;;
38266;SDS011;24063;51.794;19.578;2023-02-13T04:51:11;49.55;;;48.46;;
38266;SDS011;24063;51.794;19.578;2023-02-13T04:52:12;37.81;;;37.28;;
38266;SDS011;24063;51.794;19.578;2023-02-13T04:53:14;35.14;;;34.59;;
38266;SDS011;24063;51.794;19.578;2023-02-13T04:54:14;33.64;;;33.15;;
38266;SDS011;24063;51.794;19.578;2023-02-13T04:55:15;30.04;;;29.85;;
38266;SDS011;24063;51.794;19.578;2023-02-13T04:56:15;46.29;;;45.76;;
38266;SDS011;24063;51.794;19.578;2023-02-13T04:57:19;27.24;;;26.77;;
38266;SDS011;24063;51.794;19.578;2023-02-13T04:58:20;29.60;;;28.90;;
38266;SDS011;24063;51.794;19.578;2023-02-13T04:59:20;26.74;;;25.83;;
38266;SDS011;24063;51.794;19.578;2023-02-13T05:00:21;34.56;;;32.69;;
38266;SDS011;24063;51.794;19.578;2023-02-13T05:01:24;51.39;;;49.91;;
38266;SDS011;24063;51.794;19.578;2023-02-13T05:02:24;37.32;;;36.78;;
38266;SDS011;24063;51.794;19.578;2023-02-13T05:03:25;33.78;;;33.45;;
38266;SDS011;24063;51.794;19.578;2023-02-13T05:04:25;28.98;;;28.83;;
38266;SDS011;24063;51.794;19.578;2023-02-13T05:05:28;30.55;;;28.28;;
38266;SDS011;24063;51.794;19.578;2023-02-13T05:06:28;33.69;;;29.22;;
38266;SDS011;24063;51.794;19.578;2023-02-13T05:07:31;34.89;;;30.58;;
38266;SDS011;24063;51.794;19.578;2023-02-13T05:08:32;44.11;;;39.46;;
38266;SDS011;24063;51.794;19.578;2023-02-13T05:09:33;35.63;;;33.29;;
38266;SDS011;24063;51.794;19.578;2023-02-13T05:10:33;28.37;;;25.55;;
38266;SDS011;24063;51.794;19.578;2023-02-13T05:11:34;28.48;;;25.87;;
38266;SDS011;24063;51.794;19.578;2023-02-13T05:12:34;27.15;;;25.04;;
38266;SDS011;24063;51.794;19.578;2023-02-13T05:13:35;25.14;;;23.42;;
38266;SDS011;24063;51.794;19.578;2023-02-13T05:14:36;27.60;;;26.01;;
38266;SDS011;24063;51.794;19.578;2023-02-13T05:15:36;23.98;;;22.66;;
38266;SDS011;24063;51.794;19.578;2023-02-13T05:16:37;21.83;;;20.88;;
38266;SDS011;24063;51.794;19.578;2023-02-13T05:17:38;23.38;;;22.28;;
38266;SDS011;24063;51.794;19.578;2023-02-13T05:18:38;27.18;;;25.78;;
38266;SDS011;24063;51.794;19.578;2023-02-13T05:19:39;26.79;;;25.34;;
38266;SDS011;24063;51.794;19.578;2023-02-13T05:20:40;25.78;;;24.35;;
38266;SDS011;24063;51.794;19.578;2023-02-13T05:21:41;27.81;;;25.83;;
38266;SDS011;24063;51.794;19.578;2023-02-13T05:23:00;28.66;;;25.41;;
38266;SDS011;24063;51.794;19.578;2023-02-13T05:24:20;27.42;;;24.38;;
38266;SDS011;24063;51.794;19.578;2023-02-13T05:25:21;26.22;;;24.29;;
38266;SDS011;24063;51.794;19.578;2023-02-13T05:26:22;31.39;;;28.90;;
38266;SDS011;24063;51.794;19.578;2023-02-13T05:27:22;28.09;;;25.67;;
38266;SDS011;24063;51.794;19.578;2023-02-13T05:28:23;33.49;;;30.00;;
38266;SDS011;24063;51.794;19.578;2023-02-13T05:29:43;27.83;;;25.26;;
38266;SDS011;24063;51.794;19.578;2023-02-13T05:30:43;20.14;;;19.05;;
38266;SDS011;24063;51.794;19.578;2023-02-13T05:31:44;22.60;;;21.74;;
38266;SDS011;24063;51.794;19.578;2023-02-13T05:32:46;22.24;;;21.10;;
38266;SDS011;24063;51.794;19.578;2023-02-13T05:33:46;18.49;;;17.81;;
38266;SDS011;24063;51.794;19.578;2023-02-13T05:34:47;27.47;;;25.93;;
38266;SDS011;24063;51.794;19.578;2023-02-13T05:35:47;26.24;;;24.77;;
38266;SDS011;24063;51.794;19.578;2023-02-13T05:36:49;38.06;;;34.68;;
38266;SDS011;24063;51.794;19.578;2023-02-13T05:37:49;34.63;;;32.06;;
38266;SDS011;24063;51.794;19.578;2023-02-13T05:38:50;33.81;;;31.39;;
38266;SDS011;24063;51.794;19.578;2023-02-13T05:39:51;37.70;;;34.68;;
38266;SDS011;24063;51.794;19.578;2023-02-13T05:40:51;27.61;;;25.77;;
38266;SDS011;24063;51.794;19.578;2023-02-13T05:41:52;18.98;;;18.06;;
38266;SDS011;24063;51.794;19.578;2023-02-13T05:42:53;20.34;;;19.71;;
38266;SDS011;24063;51.794;19.578;2023-02-13T05:43:54;24.32;;;23.22;;
38266;SDS011;24063;51.794;19.578;2023-02-13T05:44:54;23.31;;;22.16;;
38266;SDS011;24063;51.794;19.578;2023-02-13T05:46:02;23.12;;;21.97;;
38266;SDS011;24063;51.794;19.578;2023-02-13T05:47:06;20.69;;;19.85;;
38266;SDS011;24063;51.794;19.578;2023-02-13T05:48:07;22.73;;;21.85;;
38266;SDS011;24063;51.794;19.578;2023-02-13T05:49:08;21.66;;;20.66;;
38266;SDS011;24063;51.794;19.578;2023-02-13T05:50:10;19.66;;;19.07;;
38266;SDS011;24063;51.794;19.578;2023-02-13T05:51:11;17.45;;;16.95;;
38266;SDS011;24063;51.794;19.578;2023-02-13T05:52:12;17.77;;;17.25;;
38266;SDS011;24063;51.794;19.578;2023-02-13T05:53:12;18.47;;;18.05;;
38266;SDS011;24063;51.794;19.578;2023-02-13T05:54:13;18.94;;;18.52;;
38266;SDS011;24063;51.794;19.578;2023-02-13T05:55:14;18.45;;;17.75;;
38266;SDS011;24063;51.794;19.578;2023-02-13T05:56:15;19.09;;;18.28;;
38266;SDS011;24063;51.794;19.578;2023-02-13T05:57:15;29.22;;;27.96;;
38266;SDS011;24063;51.794;19.578;2023-02-13T05:58:16;22.09;;;21.56;;
38266;SDS011;24063;51.794;19.578;2023-02-13T05:59:16;20.92;;;20.53;;
38266;SDS011;24063;51.794;19.578;2023-02-13T06:00:17;20.89;;;20.20;;
38266;SDS011;24063;51.794;19.578;2023-02-13T06:01:19;28.44;;;26.75;;
38266;SDS011;24063;51.794;19.578;2023-02-13T06:02:21;44.40;;;42.26;;
38266;SDS011;24063;51.794;19.578;2023-02-13T06:03:22;48.91;;;43.90;;
38266;SDS011;24063;51.794;19.578;2023-02-13T06:04:24;70.67;;;59.14;;
38266;SDS011;24063;51.794;19.578;2023-02-13T06:05:24;65.94;;;55.90;;
38266;SDS011;24063;51.794;19.578;2023-02-13T06:06:25;43.24;;;39.04;;
38266;SDS011;24063;51.794;19.578;2023-02-13T06:07:25;31.75;;;30.11;;
38266;SDS011;24063;51.794;19.578;2023-02-13T06:08:26;28.09;;;27.04;;
38266;SDS011;24063;51.794;19.578;2023-02-13T06:09:26;32.46;;;31.26;;
38266;SDS011;24063;51.794;19.578;2023-02-13T06:10:27;31.68;;;30.00;;
38266;SDS011;24063;51.794;19.578;2023-02-13T06:11:28;36.36;;;33.38;;
38266;SDS011;24063;51.794;19.578;2023-02-13T06:12:29;36.00;;;32.77;;
38266;SDS011;24063;51.794;19.578;2023-02-13T06:13:29;35.22;;;32.80;;
38266;SDS011;24063;51.794;19.578;2023-02-13T06:14:31;33.87;;;31.21;;
38266;SDS011;24063;51.794;19.578;2023-02-13T06:15:33;34.55;;;31.31;;
38266;SDS011;24063;51.794;19.578;2023-02-13T06:16:34;22.97;;;20.71;;
38266;SDS011;24063;51.794;19.578;2023-02-13T06:17:35;20.21;;;18.74;;
38266;SDS011;24063;51.794;19.578;2023-02-13T06:18:35;24.94;;;24.51;;
38266;SDS011;24063;51.794;19.578;2023-02-13T06:19:36;28.54;;;28.28;;
38266;SDS011;24063;51.794;19.578;2023-02-13T06:20:37;31.60;;;29.47;;
38266;SDS011;24063;51.794;19.578;2023-02-13T06:21:38;27.94;;;25.78;;
38266;SDS011;24063;51.794;19.578;2023-02-13T06:22:39;32.94;;;30.20;;
38266;SDS011;24063;51.794;19.578;2023-02-13T06:23:39;63.87;;;50.51;;
38266;SDS011;24063;51.794;19.578;2023-02-13T06:24:40;46.32;;;38.88;;
38266;SDS011;24063;51.794;19.578;2023-02-13T06:25:40;70.06;;;56.59;;
38266;SDS011;24063;51.794;19.578;2023-02-13T06:26:41;66.75;;;55.40;;
38266;SDS011;24063;51.794;19.578;2023-02-13T06:27:41;65.44;;;53.88;;
38266;SDS011;24063;51.794;19.578;2023-02-13T06:28:42;64.80;;;54.13;;
38266;SDS011;24063;51.794;19.578;2023-02-13T06:29:42;71.66;;;58.81;;
38266;SDS011;24063;51.794;19.578;2023-02-13T06:30:43;38.73;;;33.70;;
38266;SDS011;24063;51.794;19.578;2023-02-13T06:31:43;28.99;;;27.23;;
38266;SDS011;24063;51.794;19.578;2023-02-13T06:32:47;32.14;;;28.67;;
38266;SDS011;24063;51.794;19.578;2023-02-13T06:33:48;34.95;;;29.65;;
38266;SDS011;24063;51.794;19.578;2023-02-13T06:34:48;25.85;;;23.51;;
38266;SDS011;24063;51.794;19.578;2023-02-13T06:35:49;20.67;;;20.38;;
38266;SDS011;24063;51.794;19.578;2023-02-13T06:36:49;17.86;;;17.77;;
38266;SDS011;24063;51.794;19.578;2023-02-13T06:37:50;19.88;;;19.84;;
38266;SDS011;24063;51.794;19.578;2023-02-13T06:38:50;27.68;;;27.07;;
38266;SDS011;24063;51.794;19.578;2023-02-13T06:39:51;29.59;;;27.95;;
38266;SDS011;24063;51.794;19.578;2023-02-13T06:40:51;30.05;;;27.81;;
38266;SDS011;24063;51.794;19.578;2023-02-13T06:41:52;21.48;;;20.37;;
38266;SDS011;24063;51.794;19.578;2023-02-13T06:42:53;16.85;;;16.45;;
38266;SDS011;24063;51.794;19.578;2023-02-13T06:43:54;14.78;;;14.72;;
38266;SDS011;24063;51.794;19.578;2023-02-13T06:44:54;14.93;;;14.81;;
38266;SDS011;24063;51.794;19.578;2023-02-13T06:45:54;14.65;;;14.65;;
38266;SDS011;24063;51.794;19.578;2023-02-13T06:46:55;15.84;;;15.80;;
38266;SDS011;24063;51.794;19.578;2023-02-13T06:47:55;12.61;;;12.44;;
38266;SDS011;24063;51.794;19.578;2023-02-13T06:48:56;12.65;;;12.28;;
38266;SDS011;24063;51.794;19.578;2023-02-13T06:49:57;11.71;;;11.50;;
38266;SDS011;24063;51.794;19.578;2023-02-13T06:50:57;12.07;;;11.88;;
38266;SDS011;24063;51.794;19.578;2023-02-13T06:51:58;12.42;;;12.19;;
38266;SDS011;24063;51.794;19.578;2023-02-13T06:52:59;13.18;;;12.88;;